sensor_id;sensor_type;location;lat;lon;timestamp;pressure;altitude;pressure_sealevel;temperature;humidity
14067;BME280;7108;42.684;23.350;2023-11-19T00:01:26;95308.03;;;3.77;100.00
14067;BME280;7108;42.684;23.350;2023-11-19T00:03:51;95330.63;;;3.96;100.00
14067;BME280;7108;42.684;23.350;2023-11-19T00:06:17;95338.16;;;4.03;100.00
14067;BME280;7108;42.684;23.350;2023-11-19T00:08:42;95333.91;;;4.02;100.00
14067;BME280;7108;42.684;23.350;2023-11-19T00:11:10;95331.56;;;4.09;100.00
14067;BME280;7108;42.684;23.350;2023-11-19T00:13:36;95285.47;;;3.83;100.00
14067;BME280;7108;42.684;23.350;2023-11-19T00:16:02;95327.16;;;4.04;100.00
14067;BME280;7108;42.684;23.350;2023-11-19T00:18:29;95310.22;;;3.92;100.00
14067;BME280;7108;42.684;23.350;2023-11-19T00:20:55;95314.94;;;3.95;100.00
14067;BME280;7108;42.684;23.350;2023-11-19T00:23:20;95304.72;;;3.80;100.00
14067;BME280;7108;42.684;23.350;2023-11-19T00:25:45;95332.66;;;3.99;100.00
14067;BME280;7108;42.684;23.350;2023-11-19T00:28:13;95326.06;;;3.88;100.00
14067;BME280;7108;42.684;23.350;2023-11-19T00:30:38;95341.13;;;3.93;100.00
14067;BME280;7108;42.684;23.350;2023-11-19T00:33:06;95350.69;;;3.94;100.00
14067;BME280;7108;42.684;23.350;2023-11-19T00:35:31;95312.13;;;3.75;100.00
14067;BME280;7108;42.684;23.350;2023-11-19T00:37:57;95336.56;;;3.85;100.00
14067;BME280;7108;42.684;23.350;2023-11-19T00:40:23;95350.69;;;3.94;100.00
14067;BME280;7108;42.684;23.350;2023-11-19T00:42:49;95324.81;;;3.86;100.00
14067;BME280;7108;42.684;23.350;2023-11-19T00:45:15;95347.41;;;4.05;100.00
14067;BME280;7108;42.684;23.350;2023-11-19T00:47:40;95351.78;;;3.93;100.00
14067;BME280;7108;42.684;23.350;2023-11-19T00:50:07;95358.66;;;4.02;100.00
14067;BME280;7108;42.684;23.350;2023-11-19T00:52:37;95322.13;;;3.86;100.00
14067;BME280;7108;42.684;23.350;2023-11-19T00:55:03;95337.66;;;3.92;100.00
14067;BME280;7108;42.684;23.350;2023-11-19T00:57:29;95339.56;;;3.92;100.00
14067;BME280;7108;42.684;23.350;2023-11-19T00:59:55;95332.47;;;3.88;100.00
14067;BME280;7108;42.684;23.350;2023-11-19T01:02:21;95341.72;;;3.82;100.00
14067;BME280;7108;42.684;23.350;2023-11-19T01:04:46;95342.06;;;3.88;100.00
14067;BME280;7108;42.684;23.350;2023-11-19T01:07:11;95314.75;;;3.66;100.00
14067;BME280;7108;42.684;23.350;2023-11-19T01:09:38;95354.91;;;3.78;100.00
14067;BME280;7108;42.684;23.350;2023-11-19T01:12:03;95341.09;;;3.76;100.00
14067;BME280;7108;42.684;23.350;2023-11-19T01:14:29;95350.66;;;3.77;100.00
14067;BME280;7108;42.684;23.350;2023-11-19T01:16:55;95358.19;;;3.84;100.00
14067;BME280;7108;42.684;23.350;2023-11-19T01:19:21;95352.09;;;3.83;100.00
14067;BME280;7108;42.684;23.350;2023-11-19T01:21:48;95326.19;;;3.67;100.00
14067;BME280;7108;42.684;23.350;2023-11-19T01:24:13;95341.28;;;3.80;100.00
14067;BME280;7108;42.684;23.350;2023-11-19T01:26:39;95336.53;;;3.77;100.00
14067;BME280;7108;42.684;23.350;2023-11-19T01:29:11;95329.47;;;3.55;100.00
14067;BME280;7108;42.684;23.350;2023-11-19T01:31:39;95322.41;;;3.59;100.00
14067;BME280;7108;42.684;23.350;2023-11-19T01:34:05;95361.31;;;3.77;100.00
14067;BME280;7108;42.684;23.350;2023-11-19T01:36:30;95359.88;;;3.63;100.00
14067;BME280;7108;42.684;23.350;2023-11-19T01:38:55;95364.44;;;3.79;100.00
14067;BME280;7108;42.684;23.350;2023-11-19T01:41:23;95355.19;;;3.68;100.00
14067;BME280;7108;42.684;23.350;2023-11-19T01:43:50;95349.56;;;3.70;100.00
14067;BME280;7108;42.684;23.350;2023-11-19T01:46:16;95344.53;;;3.77;100.00
14067;BME280;7108;42.684;23.350;2023-11-19T01:48:44;95358.34;;;3.79;100.00
14067;BME280;7108;42.684;23.350;2023-11-19T01:51:12;95338.25;;;3.64;100.00
14067;BME280;7108;42.684;23.350;2023-11-19T01:53:39;95350.00;;;3.72;100.00
14067;BME280;7108;42.684;23.350;2023-11-19T01:56:07;95339.66;;;3.62;100.00
14067;BME280;7108;42.684;23.350;2023-11-19T01:58:36;95364.13;;;3.64;100.00
14067;BME280;7108;42.684;23.350;2023-11-19T02:01:01;95347.66;;;3.70;100.00
14067;BME280;7108;42.684;23.350;2023-11-19T02:03:31;95372.28;;;3.84;100.00
14067;BME280;7108;42.684;23.350;2023-11-19T02:05:58;95365.06;;;3.76;100.00
14067;BME280;7108;42.684;23.350;2023-11-19T02:08:24;95366.34;;;3.79;100.00
14067;BME280;7108;42.684;23.350;2023-11-19T02:10:49;95353.66;;;3.76;100.00
14067;BME280;7108;42.684;23.350;2023-11-19T02:13:14;95365.25;;;3.80;100.00
14067;BME280;7108;42.684;23.350;2023-11-19T02:15:41;95328.22;;;3.61;100.00
14067;BME280;7108;42.684;23.350;2023-11-19T02:18:27;95332.31;;;3.67;100.00
14067;BME280;7108;42.684;23.350;2023-11-19T02:20:59;95329.81;;;3.71;100.00
14067;BME280;7108;42.684;23.350;2023-11-19T02:23:26;95343.94;;;3.88;100.00
14067;BME280;7108;42.684;23.350;2023-11-19T02:26:33;95341.44;;;3.83;100.00
14067;BME280;7108;42.684;23.350;2023-11-19T02:28:50;95332.47;;;3.62;100.00
14067;BME280;7108;42.684;23.350;2023-11-19T02:31:16;95331.03;;;3.56;100.00
14067;BME280;7108;42.684;23.350;2023-11-19T02:33:41;95324.63;;;3.57;100.00
14067;BME280;7108;42.684;23.350;2023-11-19T02:36:08;95346.88;;;3.61;100.00
14067;BME280;7108;42.684;23.350;2023-11-19T02:38:34;95346.59;;;3.71;100.00
14067;BME280;7108;42.684;23.350;2023-11-19T02:41:04;95312.03;;;3.41;100.00
14067;BME280;7108;42.684;23.350;2023-11-19T02:43:31;95351.09;;;3.54;100.00
14067;BME280;7108;42.684;23.350;2023-11-19T02:46:03;95314.88;;;3.44;100.00
14067;BME280;7108;42.684;23.350;2023-11-19T02:48:33;95316.44;;;3.45;100.00
14067;BME280;7108;42.684;23.350;2023-11-19T02:51:04;95327.59;;;3.56;100.00
14067;BME280;7108;42.684;23.350;2023-11-19T02:53:30;95340.47;;;3.62;100.00
14067;BME280;7108;42.684;23.350;2023-11-19T02:55:56;95327.16;;;3.62;100.00
14067;BME280;7108;42.684;23.350;2023-11-19T02:58:27;95313.00;;;3.36;100.00
14067;BME280;7108;42.684;23.350;2023-11-19T03:00:54;95334.19;;;3.50;100.00
14067;BME280;7108;42.684;23.350;2023-11-19T03:03:26;95344.50;;;3.51;100.00
14067;BME280;7108;42.684;23.350;2023-11-19T03:06:06;95309.66;;;3.22;100.00
14067;BME280;7108;42.684;23.350;2023-11-19T03:08:34;95344.81;;;3.50;100.00
14067;BME280;7108;42.684;23.350;2023-11-19T03:11:00;95347.81;;;3.57;100.00
14067;BME280;7108;42.684;23.350;2023-11-19T03:13:25;95312.16;;;3.27;100.00
14067;BME280;7108;42.684;23.350;2023-11-19T03:15:52;95323.00;;;3.31;100.00
14067;BME280;7108;42.684;23.350;2023-11-19T03:18:19;95337.09;;;3.31;100.00
14067;BME280;7108;42.684;23.350;2023-11-19T03:20:46;95339.63;;;3.36;100.00
14067;BME280;7108;42.684;23.350;2023-11-19T03:23:11;95334.59;;;3.35;100.00
14067;BME280;7108;42.684;23.350;2023-11-19T03:25:37;95355.59;;;3.45;100.00
14067;BME280;7108;42.684;23.350;2023-11-19T03:28:04;95352.13;;;3.36;100.00
14067;BME280;7108;42.684;23.350;2023-11-19T03:30:30;95310.88;;;3.08;100.00
14067;BME280;7108;42.684;23.350;2023-11-19T03:32:56;95332.38;;;3.28;100.00
14067;BME280;7108;42.684;23.350;2023-11-19T03:35:23;95352.63;;;3.38;100.00
14067;BME280;7108;42.684;23.350;2023-11-19T03:37:49;95354.16;;;3.30;100.00
14067;BME280;7108;42.684;23.350;2023-11-19T03:40:14;95350.69;;;3.30;100.00
14067;BME280;7108;42.684;23.350;2023-11-19T03:42:40;95370.16;;;3.39;100.00
14067;BME280;7108;42.684;23.350;2023-11-19T03:45:07;95373.44;;;3.36;100.00
14067;BME280;7108;42.684;23.350;2023-11-19T03:47:35;95374.84;;;3.33;100.00
14067;BME280;7108;42.684;23.350;2023-11-19T03:50:02;95368.66;;;3.16;100.00
14067;BME280;7108;42.684;23.350;2023-11-19T03:52:28;95377.47;;;3.25;100.00
14067;BME280;7108;42.684;23.350;2023-11-19T03:54:54;95385.31;;;3.30;100.00
14067;BME280;7108;42.684;23.350;2023-11-19T03:57:20;95368.22;;;3.22;100.00
14067;BME280;7108;42.684;23.350;2023-11-19T03:59:46;95393.97;;;3.35;100.00
14067;BME280;7108;42.684;23.350;2023-11-19T04:02:11;95385.31;;;3.30;100.00
14067;BME280;7108;42.684;23.350;2023-11-19T04:04:37;95377.28;;;3.13;100.00
14067;BME280;7108;42.684;23.350;2023-11-19T04:07:04;95388.47;;;3.32;100.00
14067;BME280;7108;42.684;23.350;2023-11-19T04:09:30;95389.34;;;3.19;100.00
14067;BME280;7108;42.684;23.350;2023-11-19T04:11:56;95395.00;;;3.26;100.00
14067;BME280;7108;42.684;23.350;2023-11-19T04:14:22;95394.84;;;3.22;100.00
14067;BME280;7108;42.684;23.350;2023-11-19T04:16:47;95414.13;;;3.28;100.00
14067;BME280;7108;42.684;23.350;2023-11-19T04:19:13;95403.31;;;3.24;100.00
14067;BME280;7108;42.684;23.350;2023-11-19T04:21:41;95412.28;;;3.37;100.00
14067;BME280;7108;42.684;23.350;2023-11-19T04:24:10;95380.94;;;3.25;100.00
14067;BME280;7108;42.684;23.350;2023-11-19T04:26:42;95389.38;;;3.27;100.00
14067;BME280;7108;42.684;23.350;2023-11-19T04:29:14;95386.91;;;3.39;100.00
14067;BME280;7108;42.684;23.350;2023-11-19T04:31:43;95393.16;;;3.35;100.00
14067;BME280;7108;42.684;23.350;2023-11-19T04:34:09;95391.31;;;3.35;100.00
14067;BME280;7108;42.684;23.350;2023-11-19T04:36:36;95398.81;;;3.33;100.00
14067;BME280;7108;42.684;23.350;2023-11-19T04:39:03;95426.59;;;3.49;100.00
14067;BME280;7108;42.684;23.350;2023-11-19T04:41:32;95421.84;;;3.38;100.00
14067;BME280;7108;42.684;23.350;2023-11-19T04:43:58;95408.31;;;3.26;100.00
14067;BME280;7108;42.684;23.350;2023-11-19T04:46:23;95429.22;;;3.41;100.00
14067;BME280;7108;42.684;23.350;2023-11-19T04:48:49;95437.19;;;3.41;100.00
14067;BME280;7108;42.684;23.350;2023-11-19T04:51:15;95446.13;;;3.36;100.00
14067;BME280;7108;42.684;23.350;2023-11-19T04:53:40;95417.34;;;3.17;100.00
14067;BME280;7108;42.684;23.350;2023-11-19T04:56:10;95442.16;;;3.25;100.00
14067;BME280;7108;42.684;23.350;2023-11-19T04:58:36;95426.66;;;3.27;100.00
14067;BME280;7108;42.684;23.350;2023-11-19T05:01:02;95441.41;;;3.33;100.00
14067;BME280;7108;42.684;23.350;2023-11-19T05:03:29;95428.41;;;3.32;100.00
14067;BME280;7108;42.684;23.350;2023-11-19T05:05:54;95431.50;;;3.25;100.00
14067;BME280;7108;42.684;23.350;2023-11-19T05:08:19;95456.34;;;3.43;100.00
14067;BME280;7108;42.684;23.350;2023-11-19T05:10:45;95435.25;;;3.24;100.00
14067;BME280;7108;42.684;23.350;2023-11-19T05:13:10;95457.41;;;3.42;100.00
14067;BME280;7108;42.684;23.350;2023-11-19T05:15:36;95452.59;;;3.44;100.00
14067;BME280;7108;42.684;23.350;2023-11-19T05:18:01;95459.47;;;3.45;100.00
14067;BME280;7108;42.684;23.350;2023-11-19T05:20:27;95437.00;;;3.29;100.00
14067;BME280;7108;42.684;23.350;2023-11-19T05:22:52;95463.38;;;3.39;100.00
14067;BME280;7108;42.684;23.350;2023-11-19T05:25:18;95427.28;;;3.24;100.00
14067;BME280;7108;42.684;23.350;2023-11-19T05:27:45;95454.63;;;3.47;100.00
14067;BME280;7108;42.684;23.350;2023-11-19T05:30:11;95462.47;;;3.52;100.00
14067;BME280;7108;42.684;23.350;2023-11-19T05:32:36;95441.31;;;3.47;100.00
14067;BME280;7108;42.684;23.350;2023-11-19T05:35:02;95447.13;;;3.49;100.00
14067;BME280;7108;42.684;23.350;2023-11-19T05:37:27;95470.00;;;3.50;100.00
14067;BME280;7108;42.684;23.350;2023-11-19T05:39:53;95454.94;;;3.45;100.00
14067;BME280;7108;42.684;23.350;2023-11-19T05:42:18;95470.94;;;3.54;100.00
14067;BME280;7108;42.684;23.350;2023-11-19T05:44:44;95465.44;;;3.50;100.00
14067;BME280;7108;42.684;23.350;2023-11-19T05:47:09;95475.19;;;3.55;100.00
14067;BME280;7108;42.684;23.350;2023-11-19T05:49:34;95460.13;;;3.50;100.00
14067;BME280;7108;42.684;23.350;2023-11-19T05:52:00;95465.75;;;3.49;100.00
14067;BME280;7108;42.684;23.350;2023-11-19T05:54:28;95471.41;;;3.56;100.00
14067;BME280;7108;42.684;23.350;2023-11-19T05:56:53;95458.31;;;3.37;100.00
14067;BME280;7108;42.684;23.350;2023-11-19T05:59:19;95473.44;;;3.50;100.00
14067;BME280;7108;42.684;23.350;2023-11-19T06:01:45;95461.53;;;3.48;100.00
14067;BME280;7108;42.684;23.350;2023-11-19T06:04:11;95450.91;;;3.26;100.00
14067;BME280;7108;42.684;23.350;2023-11-19T06:06:37;95493.53;;;3.56;100.00
14067;BME280;7108;42.684;23.350;2023-11-19T06:09:03;95468.44;;;3.49;100.00
14067;BME280;7108;42.684;23.350;2023-11-19T06:11:29;95481.34;;;3.33;100.00
14067;BME280;7108;42.684;23.350;2023-11-19T06:13:54;95482.78;;;3.39;100.00
14067;BME280;7108;42.684;23.350;2023-11-19T06:16:21;95494.91;;;3.54;100.00
14067;BME280;7108;42.684;23.350;2023-11-19T06:18:46;95490.31;;;3.46;100.00
14067;BME280;7108;42.684;23.350;2023-11-19T06:21:12;95481.88;;;3.44;100.00
14067;BME280;7108;42.684;23.350;2023-11-19T06:23:38;95482.16;;;3.42;100.00
14067;BME280;7108;42.684;23.350;2023-11-19T06:26:04;95450.22;;;3.12;100.00
14067;BME280;7108;42.684;23.350;2023-11-19T06:28:30;95472.53;;;3.24;100.00
14067;BME280;7108;42.684;23.350;2023-11-19T06:30:56;95499.25;;;3.41;100.00
14067;BME280;7108;42.684;23.350;2023-11-19T06:33:23;95485.63;;;3.43;100.00
14067;BME280;7108;42.684;23.350;2023-11-19T06:35:48;95480.53;;;3.55;100.00
14067;BME280;7108;42.684;23.350;2023-11-19T06:38:14;95474.47;;;3.41;100.00
14067;BME280;7108;42.684;23.350;2023-11-19T06:40:40;95499.13;;;3.46;100.00
14067;BME280;7108;42.684;23.350;2023-11-19T06:43:06;95475.50;;;3.23;100.00
14067;BME280;7108;42.684;23.350;2023-11-19T06:45:33;95484.81;;;3.42;100.00
14067;BME280;7108;42.684;23.350;2023-11-19T06:48:01;95496.47;;;3.46;100.00
14067;BME280;7108;42.684;23.350;2023-11-19T06:50:28;95489.50;;;3.37;100.00
14067;BME280;7108;42.684;23.350;2023-11-19T06:52:54;95488.41;;;3.38;100.00
14067;BME280;7108;42.684;23.350;2023-11-19T06:55:19;95474.66;;;3.44;100.00
14067;BME280;7108;42.684;23.350;2023-11-19T06:57:44;95475.59;;;3.48;100.00
14067;BME280;7108;42.684;23.350;2023-11-19T07:00:10;95479.25;;;3.52;100.00
14067;BME280;7108;42.684;23.350;2023-11-19T07:02:36;95477.94;;;3.80;100.00
14067;BME280;7108;42.684;23.350;2023-11-19T07:05:02;95496.84;;;4.09;100.00
14067;BME280;7108;42.684;23.350;2023-11-19T07:07:31;95500.91;;;4.06;100.00
14067;BME280;7108;42.684;23.350;2023-11-19T07:09:57;95506.13;;;3.73;100.00
14067;BME280;7108;42.684;23.350;2023-11-19T07:12:22;95508.19;;;3.45;100.00
14067;BME280;7108;42.684;23.350;2023-11-19T07:14:48;95491.03;;;3.29;100.00
14067;BME280;7108;42.684;23.350;2023-11-19T07:17:13;95488.72;;;3.36;100.00
14067;BME280;7108;42.684;23.350;2023-11-19T07:19:40;95495.97;;;3.44;100.00
14067;BME280;7108;42.684;23.350;2023-11-19T07:22:06;95524.81;;;3.51;100.00
14067;BME280;7108;42.684;23.350;2023-11-19T07:24:32;95518.72;;;3.50;100.00
14067;BME280;7108;42.684;23.350;2023-11-19T07:26:57;95494.66;;;3.33;100.00
14067;BME280;7108;42.684;23.350;2023-11-19T07:29:23;95492.63;;;3.09;100.00
14067;BME280;7108;42.684;23.350;2023-11-19T07:31:49;95532.38;;;3.27;100.00
14067;BME280;7108;42.684;23.350;2023-11-19T07:34:14;95524.69;;;3.25;100.00
14067;BME280;7108;42.684;23.350;2023-11-19T07:36:40;95555.88;;;3.33;100.00
14067;BME280;7108;42.684;23.350;2023-11-19T07:39:13;95540.00;;;3.20;100.00
14067;BME280;7108;42.684;23.350;2023-11-19T07:41:39;95525.06;;;3.11;100.00
14067;BME280;7108;42.684;23.350;2023-11-19T07:44:05;95531.66;;;3.13;100.00
14067;BME280;7108;42.684;23.350;2023-11-19T07:46:31;95558.50;;;3.25;100.00
14067;BME280;7108;42.684;23.350;2023-11-19T07:48:57;95547.91;;;3.33;100.00
14067;BME280;7108;42.684;23.350;2023-11-19T07:51:23;95545.28;;;3.42;100.00
14067;BME280;7108;42.684;23.350;2023-11-19T07:53:48;95531.22;;;3.41;100.00
14067;BME280;7108;42.684;23.350;2023-11-19T07:56:14;95527.88;;;3.36;100.00
14067;BME280;7108;42.684;23.350;2023-11-19T07:58:40;95544.84;;;3.48;100.00
14067;BME280;7108;42.684;23.350;2023-11-19T08:01:06;95548.63;;;3.47;100.00
14067;BME280;7108;42.684;23.350;2023-11-19T08:03:31;95544.09;;;3.48;100.00
14067;BME280;7108;42.684;23.350;2023-11-19T08:05:57;95539.91;;;3.33;100.00
14067;BME280;7108;42.684;23.350;2023-11-19T08:08:23;95549.78;;;3.33;100.00
14067;BME280;7108;42.684;23.350;2023-11-19T08:10:48;95560.00;;;3.39;100.00
14067;BME280;7108;42.684;23.350;2023-11-19T08:13:14;95546.69;;;3.39;100.00
14067;BME280;7108;42.684;23.350;2023-11-19T08:15:39;95549.97;;;3.36;100.00
14067;BME280;7108;42.684;23.350;2023-11-19T08:18:06;95584.53;;;3.50;100.00
14067;BME280;7108;42.684;23.350;2023-11-19T08:20:32;95575.78;;;3.58;100.00
14067;BME280;7108;42.684;23.350;2023-11-19T08:22:58;95569.69;;;3.57;100.00
14067;BME280;7108;42.684;23.350;2023-11-19T08:25:24;95562.91;;;3.51;100.00
14067;BME280;7108;42.684;23.350;2023-11-19T08:27:49;95554.13;;;3.51;100.00
14067;BME280;7108;42.684;23.350;2023-11-19T08:30:15;95584.53;;;3.50;100.00
14067;BME280;7108;42.684;23.350;2023-11-19T08:32:40;95571.03;;;3.46;100.00
14067;BME280;7108;42.684;23.350;2023-11-19T08:35:06;95576.53;;;3.50;100.00
14067;BME280;7108;42.684;23.350;2023-11-19T08:37:32;95579.06;;;3.55;100.00
14067;BME280;7108;42.684;23.350;2023-11-19T08:39:57;95583.00;;;3.57;100.00
14067;BME280;7108;42.684;23.350;2023-11-19T08:42:23;95598.97;;;3.57;100.00
14067;BME280;7108;42.684;23.350;2023-11-19T08:44:49;95596.25;;;3.49;100.00
14067;BME280;7108;42.684;23.350;2023-11-19T08:47:16;95582.13;;;3.48;100.00
14067;BME280;7108;42.684;23.350;2023-11-19T08:49:44;95563.94;;;3.42;100.00
14067;BME280;7108;42.684;23.350;2023-11-19T08:52:09;95559.09;;;3.44;100.00
14067;BME280;7108;42.684;23.350;2023-11-19T08:54:36;95582.63;;;3.72;100.00
14067;BME280;7108;42.684;23.350;2023-11-19T08:57:02;95592.69;;;3.84;100.00
14067;BME280;7108;42.684;23.350;2023-11-19T08:59:28;95595.84;;;3.86;100.00
14067;BME280;7108;42.684;23.350;2023-11-19T09:01:54;95586.88;;;3.82;100.00
14067;BME280;7108;42.684;23.350;2023-11-19T09:04:19;95574.00;;;3.75;100.00
14067;BME280;7108;42.684;23.350;2023-11-19T09:06:47;95570.28;;;3.85;100.00
14067;BME280;7108;42.684;23.350;2023-11-19T09:09:12;95552.31;;;3.68;100.00
14067;BME280;7108;42.684;23.350;2023-11-19T09:11:39;95557.00;;;3.63;100.00
14067;BME280;7108;42.684;23.350;2023-11-19T09:14:04;95543.47;;;3.51;100.00
14067;BME280;7108;42.684;23.350;2023-11-19T09:16:30;95544.91;;;3.57;100.00
14067;BME280;7108;42.684;23.350;2023-11-19T09:18:55;95524.03;;;3.50;100.00
14067;BME280;7108;42.684;23.350;2023-11-19T09:21:21;95546.47;;;3.58;100.00
14067;BME280;7108;42.684;23.350;2023-11-19T09:23:46;95559.03;;;3.66;100.00
14067;BME280;7108;42.684;23.350;2023-11-19T09:26:13;95577.75;;;3.74;100.00
14067;BME280;7108;42.684;23.350;2023-11-19T09:28:38;95580.94;;;3.54;100.00
14067;BME280;7108;42.684;23.350;2023-11-19T09:31:13;95573.63;;;3.60;100.00
14067;BME280;7108;42.684;23.350;2023-11-19T09:33:38;95560.94;;;3.65;100.00
14067;BME280;7108;42.684;23.350;2023-11-19T09:36:04;95572.28;;;3.79;100.00
14067;BME280;7108;42.684;23.350;2023-11-19T09:38:30;95570.41;;;3.80;100.00
14067;BME280;7108;42.684;23.350;2023-11-19T09:40:55;95534.22;;;3.79;100.00
14067;BME280;7108;42.684;23.350;2023-11-19T09:43:22;95540.72;;;4.03;100.00
14067;BME280;7108;42.684;23.350;2023-11-19T09:45:49;95524.06;;;3.97;100.00
14067;BME280;7108;42.684;23.350;2023-11-19T09:48:18;95541.34;;;4.00;100.00
14067;BME280;7108;42.684;23.350;2023-11-19T09:50:46;95507.22;;;3.72;100.00
14067;BME280;7108;42.684;23.350;2023-11-19T09:53:12;95501.28;;;3.75;100.00
14067;BME280;7108;42.684;23.350;2023-11-19T09:55:38;95510.28;;;3.95;100.00
14067;BME280;7108;42.684;23.350;2023-11-19T09:58:03;95514.91;;;3.82;100.00
14067;BME280;7108;42.684;23.350;2023-11-19T10:00:30;95526.72;;;3.89;100.00
14067;BME280;7108;42.684;23.350;2023-11-19T10:02:56;95512.47;;;3.93;100.00
14067;BME280;7108;42.684;23.350;2023-11-19T10:05:26;95495.19;;;3.83;100.00
14067;BME280;7108;42.684;23.350;2023-11-19T10:07:52;95514.25;;;4.06;100.00
14067;BME280;7108;42.684;23.350;2023-11-19T10:10:18;95510.84;;;4.31;100.00
14067;BME280;7108;42.684;23.350;2023-11-19T10:12:47;95518.19;;;4.26;100.00
14067;BME280;7108;42.684;23.350;2023-11-19T10:15:24;95492.47;;;4.21;100.00
14067;BME280;7108;42.684;23.350;2023-11-19T10:17:52;95498.28;;;4.23;100.00
14067;BME280;7108;42.684;23.350;2023-11-19T10:20:20;95517.28;;;4.30;100.00
14067;BME280;7108;42.684;23.350;2023-11-19T10:22:45;95516.69;;;4.50;100.00
14067;BME280;7108;42.684;23.350;2023-11-19T10:25:25;95513.53;;;4.65;100.00
14067;BME280;7108;42.684;23.350;2023-11-19T10:27:51;95505.53;;;4.65;100.00
14067;BME280;7108;42.684;23.350;2023-11-19T10:30:28;95507.44;;;4.64;100.00
14067;BME280;7108;42.684;23.350;2023-11-19T10:33:12;95506.31;;;4.49;100.00
14067;BME280;7108;42.684;23.350;2023-11-19T10:35:58;95503.31;;;4.33;100.00
14067;BME280;7108;42.684;23.350;2023-11-19T10:38:24;95484.31;;;4.18;100.00
14067;BME280;7108;42.684;23.350;2023-11-19T10:40:50;95498.91;;;4.20;100.00
14067;BME280;7108;42.684;23.350;2023-11-19T10:43:17;95507.03;;;4.15;100.00
14067;BME280;7108;42.684;23.350;2023-11-19T10:45:43;95510.19;;;4.26;100.00
14067;BME280;7108;42.684;23.350;2023-11-19T10:48:09;95497.97;;;4.25;100.00
14067;BME280;7108;42.684;23.350;2023-11-19T10:50:38;95494.81;;;4.23;100.00
14067;BME280;7108;42.684;23.350;2023-11-19T10:53:05;95509.91;;;4.44;100.00
14067;BME280;7108;42.684;23.350;2023-11-19T10:55:35;95502.25;;;4.51;100.00
14067;BME280;7108;42.684;23.350;2023-11-19T10:58:02;95490.63;;;4.39;100.00
14067;BME280;7108;42.684;23.350;2023-11-19T11:00:38;95507.44;;;4.56;100.00
14067;BME280;7108;42.684;23.350;2023-11-19T11:03:33;95487.34;;;4.67;100.00
14067;BME280;7108;42.684;23.350;2023-11-19T11:06:02;95458.75;;;4.59;100.00
14067;BME280;7108;42.684;23.350;2023-11-19T11:08:30;95484.69;;;4.92;100.00
14067;BME280;7108;42.684;23.350;2023-11-19T11:10:56;95470.66;;;5.12;100.00
14067;BME280;7108;42.684;23.350;2023-11-19T11:13:23;95470.34;;;5.22;100.00
14067;BME280;7108;42.684;23.350;2023-11-19T11:15:50;95461.50;;;5.30;100.00
14067;BME280;7108;42.684;23.350;2023-11-19T11:18:22;95454.72;;;5.41;100.00
14067;BME280;7108;42.684;23.350;2023-11-19T11:20:52;95459.78;;;5.34;100.00
14067;BME280;7108;42.684;23.350;2023-11-19T11:29:03;95459.66;;;5.14;100.00
14067;BME280;7108;42.684;23.350;2023-11-19T11:32:00;95459.16;;;5.20;100.00
14067;BME280;7108;42.684;23.350;2023-11-19T11:37:32;95444.25;;;5.19;100.00
14067;BME280;7108;42.684;23.350;2023-11-19T11:39:58;95451.72;;;5.42;100.00
14067;BME280;7108;42.684;23.350;2023-11-19T11:47:25;95425.28;;;5.12;100.00
14067;BME280;7108;42.684;23.350;2023-11-19T11:49:51;95429.34;;;5.18;100.00
14067;BME280;7108;42.684;23.350;2023-11-19T11:52:17;95424.19;;;5.13;100.00
14067;BME280;7108;42.684;23.350;2023-11-19T11:54:44;95422.88;;;5.19;100.00
14067;BME280;7108;42.684;23.350;2023-11-19T11:57:14;95387.38;;;5.18;100.00
14067;BME280;7108;42.684;23.350;2023-11-19T12:02:13;95429.97;;;5.61;100.00
14067;BME280;7108;42.684;23.350;2023-11-19T12:04:40;95426.34;;;5.65;100.00
14067;BME280;7108;42.684;23.350;2023-11-19T12:07:13;95416.34;;;5.54;100.00
14067;BME280;7108;42.684;23.350;2023-11-19T12:09:45;95426.19;;;5.62;100.00
14067;BME280;7108;42.684;23.350;2023-11-19T12:15:04;95410.94;;;5.62;100.00
14067;BME280;7108;42.684;23.350;2023-11-19T12:20:04;95400.06;;;5.30;100.00
14067;BME280;7108;42.684;23.350;2023-11-19T12:22:31;95392.53;;;5.32;100.00
14067;BME280;7108;42.684;23.350;2023-11-19T12:24:57;95385.47;;;5.27;100.00
14067;BME280;7108;42.684;23.350;2023-11-19T12:27:23;95390.00;;;5.35;100.00
14067;BME280;7108;42.684;23.350;2023-11-19T12:29:49;95374.97;;;5.22;100.00
14067;BME280;7108;42.684;23.350;2023-11-19T12:32:15;95388.56;;;5.46;100.00
14067;BME280;7108;42.684;23.350;2023-11-19T12:34:40;95386.91;;;5.62;100.00
14067;BME280;7108;42.684;23.350;2023-11-19T12:37:06;95372.75;;;5.62;100.00
14067;BME280;7108;42.684;23.350;2023-11-19T12:39:32;95364.91;;;5.57;100.00
14067;BME280;7108;42.684;23.350;2023-11-19T12:41:58;95358.09;;;5.68;100.00
14067;BME280;7108;42.684;23.350;2023-11-19T12:44:26;95369.69;;;5.80;100.00
14067;BME280;7108;42.684;23.350;2023-11-19T12:49:27;95352.09;;;5.71;100.00
14067;BME280;7108;42.684;23.350;2023-11-19T12:51:52;95354.84;;;5.62;100.00
14067;BME280;7108;42.684;23.350;2023-11-19T12:54:18;95367.06;;;5.63;100.00
14067;BME280;7108;42.684;23.350;2023-11-19T12:56:53;95373.47;;;5.71;100.00
14067;BME280;7108;42.684;23.350;2023-11-19T12:59:19;95350.13;;;5.59;100.00
14067;BME280;7108;42.684;23.350;2023-11-19T13:01:54;95346.63;;;5.67;100.00
14067;BME280;7108;42.684;23.350;2023-11-19T13:04:20;95355.22;;;5.81;100.00
14067;BME280;7108;42.684;23.350;2023-11-19T13:06:46;95328.09;;;5.62;100.00
14067;BME280;7108;42.684;23.350;2023-11-19T13:09:30;95351.56;;;5.86;100.00
14067;BME280;7108;42.684;23.350;2023-11-19T13:11:56;95351.19;;;5.95;100.00
14067;BME280;7108;42.684;23.350;2023-11-19T13:14:22;95352.44;;;5.98;100.00
14067;BME280;7108;42.684;23.350;2023-11-19T13:16:49;95343.66;;;5.89;100.00
14067;BME280;7108;42.684;23.350;2023-11-19T13:19:15;95356.53;;;5.95;100.00
14067;BME280;7108;42.684;23.350;2023-11-19T13:21:41;95345.28;;;5.82;100.00
14067;BME280;7108;42.684;23.350;2023-11-19T13:24:07;95327.06;;;5.75;100.00